Allure of the Seas — C6XS8 — position and weather

sailwx.info

Track history (hours):
 
Tides and Currents Weather Stations Pressure Air Temp Water Temp Dewpoint Dewpoint Depression Visibility Wind Speed Wind Dir Waves Ship Positions

Allure of the Seas

Last reported at 2017-Jun-27 18:00 UTC. Time now 2017-Jun-27 22:38 UTC.
Position N 21°48' W 070°18'.

Length 362 m; draft 9.3 m.

Type: Passenger vessel. MMSI: 311020700.

Wind from 110 at 18 knots

Barometer 1017.0 mb
Air temperature 27.0 ° C
Visibility: greater than 10.8 NM
Dewpoint 24.1 ° C
Water temperature 30.0 ° C

Date/timePositionNaut miles runAvg speedWind from/ knotsBaromVisibWave heightAir tempDewpointWater temp
2017-Jun-27 18:00N 21°48' W 070°18'47913.3 110 / 181017.010.8 27.024.130.0
2017-Jun-26 06:00N 25°54' W 077°48'8213.6 090 / 151020.010.8 27.024.130.0
2017-Jun-26 00:00N 26°06' W 079°18'2715.4 080 / 91018.8 28.8 30.6
2017-Jun-25 22:16N 26°08' W 079°47'414.3
2017-Jun-25 22:00N 26°07' W 079°52'713.1
2017-Jun-25 21:30N 26°06' W 079°59'611.2
2017-Jun-25 21:00N 26°06' W 080°05'2 3.8
2017-Jun-25 20:28N 26°05' W 080°07'0 0.0
2017-Jun-25 19:58N 26°05' W 080°07'0 0.0
2017-Jun-25 19:28N 26°05' W 080°07'0 0.0
2017-Jun-25 18:58N 26°05' W 080°07'0 0.0
2017-Jun-25 18:28N 26°05' W 080°07'0 0.0
2017-Jun-25 17:58N 26°05' W 080°07'0 0.0
2017-Jun-25 17:28N 26°05' W 080°07'0 0.0
2017-Jun-25 16:58N 26°05' W 080°07'0 0.0
2017-Jun-25 16:28N 26°05' W 080°07'0 0.0
2017-Jun-25 15:58N 26°05' W 080°07'0 0.0
2017-Jun-25 15:28N 26°05' W 080°07'0 0.0
2017-Jun-25 14:58N 26°05' W 080°07'0 0.0
2017-Jun-25 13:58N 26°05' W 080°07'0 0.0
2017-Jun-25 13:28N 26°05' W 080°07'0 0.0
2017-Jun-25 12:58N 26°05' W 080°07'0 0.0
2017-Jun-25 12:28N 26°05' W 080°07'0 0.0
2017-Jun-25 11:58N 26°05' W 080°07'0 0.0
2017-Jun-25 11:28N 26°05' W 080°07'0 0.0
2017-Jun-25 10:58N 26°05' W 080°07'0 0.0
2017-Jun-25 10:28N 26°05' W 080°07'0 0.0
2017-Jun-25 09:58N 26°05' W 080°07'0 0.0
2017-Jun-25 09:30N 26°05' W 080°07'2 4.5
2017-Jun-25 09:00N 26°06' W 080°05'510.4
2017-Jun-25 08:30N 26°05' W 079°59'611.2
2017-Jun-25 08:00N 26°03' W 079°53'714.1
2017-Jun-25 07:30N 25°60' W 079°46'816.4
2017-Jun-25 07:00N 25°53' W 079°40'918.1
2017-Jun-25 06:30N 25°44' W 079°39'918.1
2017-Jun-25 05:59N 25°35' W 079°38'917.1
2017-Jun-25 05:29N 25°26' W 079°38'8816.0
2017-Jun-25 00:00N 24°00' W 079°18'43518.1 110 / 191018.010.8 27.024.130.0
2017-Jun-24 00:00N 20°06' W 072°42'46010.5 090 / 211016.010.8 26.021.531.0
2017-Jun-22 03:59N 18°11' W 064°50'9215.3
2017-Jun-21 21:59N 18°01' W 063°14'815.8
2017-Jun-21 21:30N 18°00' W 063°06'3 0.3
2017-Jun-21 11:24N 18°00' W 063°03'2 6.0
2017-Jun-21 11:00N 18°00' W 063°06'714.1
2017-Jun-21 10:29N 18°03' W 063°13'816.7
2017-Jun-21 10:00N 18°07' W 063°20'917.1
2017-Jun-21 09:30N 18°13' W 063°27'73016.0
2017-Jun-19 12:00N 25°00' W 074°18'30122.2 110 / 251017.610.8 28.0 29.2
2017-Jun-18 22:26N 26°08' W 079°43'715.5
2017-Jun-18 22:00N 26°07' W 079°50'815.4
2017-Jun-18 21:30N 26°06' W 079°59'611.9
2017-Jun-18 21:00N 26°06' W 080°05'2 4.0
2017-Jun-18 20:30N 26°05' W 080°07'0 0.0
2017-Jun-18 20:00N 26°05' W 080°07'0 0.0
2017-Jun-18 19:30N 26°05' W 080°07'0 0.0
2017-Jun-18 19:00N 26°05' W 080°07'0 0.0
2017-Jun-18 18:30N 26°05' W 080°07'0 0.0
2017-Jun-18 18:00N 26°05' W 080°07'0 0.0
2017-Jun-18 17:30N 26°05' W 080°07'0 0.0
2017-Jun-18 17:00N 26°05' W 080°07'0 0.0
2017-Jun-18 16:30N 26°05' W 080°07'0 0.0
2017-Jun-18 16:00N 26°05' W 080°07'0 0.0
2017-Jun-18 15:30N 26°05' W 080°07'0 0.0
2017-Jun-18 15:00N 26°05' W 080°07'0 0.0
2017-Jun-18 14:00N 26°05' W 080°07'0 0.0
2017-Jun-18 13:30N 26°05' W 080°07'0 0.0
2017-Jun-18 13:00N 26°05' W 080°07'0 0.0
2017-Jun-18 12:30N 26°05' W 080°07'0 0.0
2017-Jun-18 12:00N 26°05' W 080°07'0 0.0
2017-Jun-18 11:30N 26°05' W 080°07'0 0.0
2017-Jun-18 11:00N 26°05' W 080°07'0 0.0
2017-Jun-18 10:30N 26°05' W 080°07'0 0.0
2017-Jun-18 10:00N 26°05' W 080°07'0 0.9
2017-Jun-18 09:30N 26°06' W 080°07'5 9.7
2017-Jun-18 09:00N 26°06' W 080°02'713.9
2017-Jun-18 08:30N 26°02' W 079°55'713.7
2017-Jun-18 08:00N 25°60' W 079°48'713.3
2017-Jun-18 07:30N 25°56' W 079°41'815.1
2017-Jun-18 07:00N 25°49' W 079°40'918.1
2017-Jun-18 06:30N 25°40' W 079°40'1120.0
2017-Jun-18 05:59N 25°29' W 079°39'  
Track history (hours):
 
Tides and Currents Weather Stations Pressure Air Temp Water Temp Dewpoint Dewpoint Depression Visibility Wind Speed Wind Dir Waves Ship Positions

Allure of the Seas

Last reported at 2017-Jun-27 18:00 UTC. Time now 2017-Jun-27 22:38 UTC.
Position N 21°48' W 070°18'.

Length 362 m; draft 9.3 m.

Type: Passenger vessel. MMSI: 311020700.

Wind from 110 at 18 knots

Barometer 1017.0 mb
Air temperature 27.0 ° C
Visibility: greater than 10.8 NM
Dewpoint 24.1 ° C
Water temperature 30.0 ° C

Date/timePositionNaut miles runAvg speedWind from/ knotsBaromVisibWave heightAir tempDewpointWater temp
2017-Jun-27 18:00N 21°48' W 070°18'47913.3 110 / 181017.010.8 27.024.130.0
2017-Jun-26 06:00N 25°54' W 077°48'8213.6 090 / 151020.010.8 27.024.130.0
2017-Jun-26 00:00N 26°06' W 079°18'2715.4 080 / 91018.8 28.8 30.6
2017-Jun-25 22:16N 26°08' W 079°47'414.3
2017-Jun-25 22:00N 26°07' W 079°52'713.1
2017-Jun-25 21:30N 26°06' W 079°59'611.2
2017-Jun-25 21:00N 26°06' W 080°05'2 3.8
2017-Jun-25 20:28N 26°05' W 080°07'0 0.0
2017-Jun-25 19:58N 26°05' W 080°07'0 0.0
2017-Jun-25 19:28N 26°05' W 080°07'0 0.0
2017-Jun-25 18:58N 26°05' W 080°07'0 0.0
2017-Jun-25 18:28N 26°05' W 080°07'0 0.0
2017-Jun-25 17:58N 26°05' W 080°07'0 0.0
2017-Jun-25 17:28N 26°05' W 080°07'0 0.0
2017-Jun-25 16:58N 26°05' W 080°07'0 0.0
2017-Jun-25 16:28N 26°05' W 080°07'0 0.0
2017-Jun-25 15:58N 26°05' W 080°07'0 0.0
2017-Jun-25 15:28N 26°05' W 080°07'0 0.0
2017-Jun-25 14:58N 26°05' W 080°07'0 0.0
2017-Jun-25 13:58N 26°05' W 080°07'0 0.0
2017-Jun-25 13:28N 26°05' W 080°07'0 0.0
2017-Jun-25 12:58N 26°05' W 080°07'0 0.0
2017-Jun-25 12:28N 26°05' W 080°07'0 0.0
2017-Jun-25 11:58N 26°05' W 080°07'0 0.0
2017-Jun-25 11:28N 26°05' W 080°07'0 0.0
2017-Jun-25 10:58N 26°05' W 080°07'0 0.0
2017-Jun-25 10:28N 26°05' W 080°07'0 0.0
2017-Jun-25 09:58N 26°05' W 080°07'0 0.0
2017-Jun-25 09:30N 26°05' W 080°07'2 4.5
2017-Jun-25 09:00N 26°06' W 080°05'510.4
2017-Jun-25 08:30N 26°05' W 079°59'611.2
2017-Jun-25 08:00N 26°03' W 079°53'714.1
2017-Jun-25 07:30N 25°60' W 079°46'816.4
2017-Jun-25 07:00N 25°53' W 079°40'918.1
2017-Jun-25 06:30N 25°44' W 079°39'918.1
2017-Jun-25 05:59N 25°35' W 079°38'917.1
2017-Jun-25 05:29N 25°26' W 079°38'8816.0
2017-Jun-25 00:00N 24°00' W 079°18'43518.1 110 / 191018.010.8 27.024.130.0
2017-Jun-24 00:00N 20°06' W 072°42'46010.5 090 / 211016.010.8 26.021.531.0
2017-Jun-22 03:59N 18°11' W 064°50'9215.3
2017-Jun-21 21:59N 18°01' W 063°14'815.8
2017-Jun-21 21:30N 18°00' W 063°06'3 0.3
2017-Jun-21 11:24N 18°00' W 063°03'2 6.0
2017-Jun-21 11:00N 18°00' W 063°06'714.1
2017-Jun-21 10:29N 18°03' W 063°13'816.7
2017-Jun-21 10:00N 18°07' W 063°20'917.1
2017-Jun-21 09:30N 18°13' W 063°27'73016.0
2017-Jun-19 12:00N 25°00' W 074°18'30122.2 110 / 251017.610.8 28.0 29.2
2017-Jun-18 22:26N 26°08' W 079°43'715.5
2017-Jun-18 22:00N 26°07' W 079°50'815.4
2017-Jun-18 21:30N 26°06' W 079°59'611.9
2017-Jun-18 21:00N 26°06' W 080°05'2 4.0
2017-Jun-18 20:30N 26°05' W 080°07'0 0.0
2017-Jun-18 20:00N 26°05' W 080°07'0 0.0
2017-Jun-18 19:30N 26°05' W 080°07'0 0.0
2017-Jun-18 19:00N 26°05' W 080°07'0 0.0
2017-Jun-18 18:30N 26°05' W 080°07'0 0.0
2017-Jun-18 18:00N 26°05' W 080°07'0 0.0
2017-Jun-18 17:30N 26°05' W 080°07'0 0.0
2017-Jun-18 17:00N 26°05' W 080°07'0 0.0
2017-Jun-18 16:30N 26°05' W 080°07'0 0.0
2017-Jun-18 16:00N 26°05' W 080°07'0 0.0
2017-Jun-18 15:30N 26°05' W 080°07'0 0.0
2017-Jun-18 15:00N 26°05' W 080°07'0 0.0
2017-Jun-18 14:00N 26°05' W 080°07'0 0.0
2017-Jun-18 13:30N 26°05' W 080°07'0 0.0
2017-Jun-18 13:00N 26°05' W 080°07'0 0.0
2017-Jun-18 12:30N 26°05' W 080°07'0 0.0
2017-Jun-18 12:00N 26°05' W 080°07'0 0.0
2017-Jun-18 11:30N 26°05' W 080°07'0 0.0
2017-Jun-18 11:00N 26°05' W 080°07'0 0.0
2017-Jun-18 10:30N 26°05' W 080°07'0 0.0
2017-Jun-18 10:00N 26°05' W 080°07'0 0.9
2017-Jun-18 09:30N 26°06' W 080°07'5 9.7
2017-Jun-18 09:00N 26°06' W 080°02'713.9
2017-Jun-18 08:30N 26°02' W 079°55'713.7
2017-Jun-18 08:00N 25°60' W 079°48'713.3
2017-Jun-18 07:30N 25°56' W 079°41'815.1
2017-Jun-18 07:00N 25°49' W 079°40'918.1
2017-Jun-18 06:30N 25°40' W 079°40'1120.0
2017-Jun-18 05:59N 25°29' W 079°39'  

Dump ship's entire track history